sensor_id;sensor_type;location;lat;lon;timestamp;pressure;altitude;pressure_sealevel;temperature;humidity
61337;BME280;47212;41.326;2.104;2023-09-19T00:03:10;101541.78;;;25.74;50.11
61337;BME280;47212;41.326;2.104;2023-09-19T00:08:14;101542.34;;;25.67;50.17
61337;BME280;47212;41.326;2.104;2023-09-19T00:13:20;101551.25;;;25.60;50.21
61337;BME280;47212;41.326;2.104;2023-09-19T00:18:23;101542.28;;;25.55;50.28
61337;BME280;47212;41.326;2.104;2023-09-19T00:23:30;101547.63;;;25.48;51.15
61337;BME280;47212;41.326;2.104;2023-09-19T00:28:37;101543.41;;;25.42;51.54
61337;BME280;47212;41.326;2.104;2023-09-19T00:33:46;101533.63;;;25.35;51.60
61337;BME280;47212;41.326;2.104;2023-09-19T00:38:50;101539.09;;;25.32;51.86
61337;BME280;47212;41.326;2.104;2023-09-19T00:43:53;101545.22;;;25.25;52.33
61337;BME280;47212;41.326;2.104;2023-09-19T00:48:56;101544.94;;;25.18;52.57
61337;BME280;47212;41.326;2.104;2023-09-19T00:53:59;101548.94;;;25.08;52.35
61337;BME280;47212;41.326;2.104;2023-09-19T00:59:01;101567.34;;;25.01;52.67
61337;BME280;47212;41.326;2.104;2023-09-19T01:05:23;101557.28;;;24.88;53.06
61337;BME280;47212;41.326;2.104;2023-09-19T01:10:26;101561.75;;;24.80;53.52
61337;BME280;47212;41.326;2.104;2023-09-19T01:20:57;101542.75;;;24.61;53.92
61337;BME280;47212;41.326;2.104;2023-09-19T01:31:36;101554.25;;;24.51;54.75
61337;BME280;47212;41.326;2.104;2023-09-19T01:36:40;101546.94;;;24.47;54.23
61337;BME280;47212;41.326;2.104;2023-09-19T01:47:00;101556.13;;;24.38;54.85
61337;BME280;47212;41.326;2.104;2023-09-19T01:52:14;101554.84;;;24.36;55.03
61337;BME280;47212;41.326;2.104;2023-09-19T01:57:34;101556.53;;;24.28;54.86
61337;BME280;47212;41.326;2.104;2023-09-19T02:02:46;101564.31;;;24.26;55.16
61337;BME280;47212;41.326;2.104;2023-09-19T02:07:51;101566.47;;;24.21;55.30
61337;BME280;47212;41.326;2.104;2023-09-19T02:12:58;101563.22;;;24.19;55.31
61337;BME280;47212;41.326;2.104;2023-09-19T02:18:02;101567.97;;;24.18;55.83
61337;BME280;47212;41.326;2.104;2023-09-19T02:23:05;101577.63;;;24.21;55.81
61337;BME280;47212;41.326;2.104;2023-09-19T02:28:10;101572.53;;;24.23;55.74
61337;BME280;47212;41.326;2.104;2023-09-19T02:33:13;101581.53;;;24.20;56.07
61337;BME280;47212;41.326;2.104;2023-09-19T02:38:16;101570.41;;;24.20;56.26
61337;BME280;47212;41.326;2.104;2023-09-19T02:43:23;101564.84;;;24.20;56.20
61337;BME280;47212;41.326;2.104;2023-09-19T02:48:28;101567.16;;;24.18;56.15
61337;BME280;47212;41.326;2.104;2023-09-19T02:53:31;101573.38;;;24.14;56.05
61337;BME280;47212;41.326;2.104;2023-09-19T02:58:36;101572.44;;;24.10;56.39
61337;BME280;47212;41.326;2.104;2023-09-19T03:03:40;101569.50;;;24.07;56.75
61337;BME280;47212;41.326;2.104;2023-09-19T03:08:43;101570.50;;;24.02;57.30
61337;BME280;47212;41.326;2.104;2023-09-19T03:13:45;101557.28;;;23.91;57.20
61337;BME280;47212;41.326;2.104;2023-09-19T03:18:51;101567.28;;;23.83;57.40
61337;BME280;47212;41.326;2.104;2023-09-19T03:23:57;101554.72;;;23.77;57.96
61337;BME280;47212;41.326;2.104;2023-09-19T03:28:59;101560.47;;;23.72;58.06
61337;BME280;47212;41.326;2.104;2023-09-19T03:34:02;101562.09;;;23.73;58.16
61337;BME280;47212;41.326;2.104;2023-09-19T03:39:06;101563.41;;;23.67;58.56
61337;BME280;47212;41.326;2.104;2023-09-19T03:44:12;101562.44;;;23.63;58.21
61337;BME280;47212;41.326;2.104;2023-09-19T03:49:14;101563.09;;;23.60;58.24
61337;BME280;47212;41.326;2.104;2023-09-19T03:54:16;101566.06;;;23.55;58.24
61337;BME280;47212;41.326;2.104;2023-09-19T03:59:21;101566.19;;;23.49;58.95
61337;BME280;47212;41.326;2.104;2023-09-19T04:04:24;101553.78;;;23.47;58.67
61337;BME280;47212;41.326;2.104;2023-09-19T04:09:27;101554.94;;;23.46;59.21
61337;BME280;47212;41.326;2.104;2023-09-19T04:14:29;101555.75;;;23.46;58.94
61337;BME280;47212;41.326;2.104;2023-09-19T04:19:32;101558.03;;;23.44;59.29
61337;BME280;47212;41.326;2.104;2023-09-19T04:24:34;101562.78;;;23.44;59.36
61337;BME280;47212;41.326;2.104;2023-09-19T04:29:37;101566.84;;;23.38;59.29
61337;BME280;47212;41.326;2.104;2023-09-19T04:34:39;101572.75;;;23.28;59.15
61337;BME280;47212;41.326;2.104;2023-09-19T04:39:42;101567.69;;;23.21;59.51
61337;BME280;47212;41.326;2.104;2023-09-19T04:44:44;101573.41;;;23.16;59.16
61337;BME280;47212;41.326;2.104;2023-09-19T04:49:46;101577.97;;;23.12;59.23
61337;BME280;47212;41.326;2.104;2023-09-19T04:54:51;101585.97;;;23.05;59.09
61337;BME280;47212;41.326;2.104;2023-09-19T04:59:54;101580.09;;;22.98;59.48
61337;BME280;47212;41.326;2.104;2023-09-19T05:04:56;101583.84;;;22.93;59.41
61337;BME280;47212;41.326;2.104;2023-09-19T05:10:02;101591.53;;;22.87;59.46
61337;BME280;47212;41.326;2.104;2023-09-19T05:15:07;101592.28;;;22.79;59.58
61337;BME280;47212;41.326;2.104;2023-09-19T05:20:10;101596.88;;;22.75;59.43
61337;BME280;47212;41.326;2.104;2023-09-19T05:25:20;101598.00;;;22.74;59.91
61337;BME280;47212;41.326;2.104;2023-09-19T05:30:22;101600.28;;;22.72;60.07
61337;BME280;47212;41.326;2.104;2023-09-19T05:35:25;101600.59;;;22.71;59.94
61337;BME280;47212;41.326;2.104;2023-09-19T05:40:28;101602.25;;;22.72;60.03
61337;BME280;47212;41.326;2.104;2023-09-19T05:45:30;101607.47;;;22.73;59.95
61337;BME280;47212;41.326;2.104;2023-09-19T05:50:32;101615.31;;;22.71;60.08
61337;BME280;47212;41.326;2.104;2023-09-19T05:55:34;101622.00;;;22.70;59.92
61337;BME280;47212;41.326;2.104;2023-09-19T06:00:37;101618.22;;;22.66;59.75
61337;BME280;47212;41.326;2.104;2023-09-19T06:05:41;101623.28;;;22.64;60.18
61337;BME280;47212;41.326;2.104;2023-09-19T06:10:43;101618.88;;;22.63;60.29
61337;BME280;47212;41.326;2.104;2023-09-19T06:15:46;101622.16;;;22.65;60.59
61337;BME280;47212;41.326;2.104;2023-09-19T06:20:51;101614.13;;;22.64;60.58
61337;BME280;47212;41.326;2.104;2023-09-19T06:25:54;101615.78;;;22.65;60.63
61337;BME280;47212;41.326;2.104;2023-09-19T06:30:56;101628.50;;;22.66;60.38
61337;BME280;47212;41.326;2.104;2023-09-19T06:35:59;101628.69;;;22.69;60.64
61337;BME280;47212;41.326;2.104;2023-09-19T06:41:02;101625.75;;;22.74;60.64
61337;BME280;47212;41.326;2.104;2023-09-19T06:46:09;101625.94;;;22.78;60.50
61337;BME280;47212;41.326;2.104;2023-09-19T06:51:11;101625.59;;;22.79;60.72
61337;BME280;47212;41.326;2.104;2023-09-19T06:56:14;101631.03;;;22.84;60.47
61337;BME280;47212;41.326;2.104;2023-09-19T07:01:16;101628.91;;;22.90;60.57
61337;BME280;47212;41.326;2.104;2023-09-19T07:06:20;101621.75;;;22.98;60.57
61337;BME280;47212;41.326;2.104;2023-09-19T07:11:22;101621.28;;;23.13;59.97
61337;BME280;47212;41.326;2.104;2023-09-19T07:16:25;101616.69;;;23.26;59.62
61337;BME280;47212;41.326;2.104;2023-09-19T07:21:32;101629.28;;;23.40;59.48
61337;BME280;47212;41.326;2.104;2023-09-19T07:26:35;101634.38;;;23.47;59.54
61337;BME280;47212;41.326;2.104;2023-09-19T07:31:37;101639.13;;;23.55;59.66
61337;BME280;47212;41.326;2.104;2023-09-19T07:36:39;101652.69;;;23.65;59.59
61337;BME280;47212;41.326;2.104;2023-09-19T07:41:42;101669.34;;;23.74;59.47
61337;BME280;47212;41.326;2.104;2023-09-19T07:46:45;101659.06;;;23.74;58.96
61337;BME280;47212;41.326;2.104;2023-09-19T07:51:49;101677.53;;;23.79;59.23
61337;BME280;47212;41.326;2.104;2023-09-19T07:56:51;101675.22;;;23.81;59.32
61337;BME280;47212;41.326;2.104;2023-09-19T08:01:53;101674.56;;;23.84;59.33
61337;BME280;47212;41.326;2.104;2023-09-19T08:06:56;101683.53;;;23.98;58.68
61337;BME280;47212;41.326;2.104;2023-09-19T08:12:00;101692.19;;;24.05;59.11
61337;BME280;47212;41.326;2.104;2023-09-19T08:17:06;101703.16;;;24.10;58.83
61337;BME280;47212;41.326;2.104;2023-09-19T08:22:10;101701.16;;;24.20;58.78
61337;BME280;47212;41.326;2.104;2023-09-19T08:27:12;101698.72;;;24.35;58.93
61337;BME280;47212;41.326;2.104;2023-09-19T08:32:14;101714.34;;;24.57;58.79
61337;BME280;47212;41.326;2.104;2023-09-19T08:37:17;101717.91;;;24.66;58.85
61337;BME280;47212;41.326;2.104;2023-09-19T08:42:20;101727.06;;;24.75;59.25
61337;BME280;47212;41.326;2.104;2023-09-19T08:47:34;101733.72;;;24.83;59.33
61337;BME280;47212;41.326;2.104;2023-09-19T08:52:43;101727.91;;;24.97;59.24
61337;BME280;47212;41.326;2.104;2023-09-19T08:57:46;101734.69;;;25.25;59.17
61337;BME280;47212;41.326;2.104;2023-09-19T09:02:51;101744.25;;;25.66;58.97
61337;BME280;47212;41.326;2.104;2023-09-19T09:07:57;101751.47;;;26.09;58.56
61337;BME280;47212;41.326;2.104;2023-09-19T09:13:02;101753.69;;;26.48;58.34
61337;BME280;47212;41.326;2.104;2023-09-19T09:18:04;101735.81;;;26.86;58.04
61337;BME280;47212;41.326;2.104;2023-09-19T09:23:07;101740.28;;;27.11;57.84
61337;BME280;47212;41.326;2.104;2023-09-19T09:28:09;101721.72;;;27.31;57.56
61337;BME280;47212;41.326;2.104;2023-09-19T09:33:13;101718.78;;;27.52;56.96
61337;BME280;47212;41.326;2.104;2023-09-19T09:38:20;101714.78;;;27.77;57.28
61337;BME280;47212;41.326;2.104;2023-09-19T09:43:27;101716.53;;;27.98;57.11
61337;BME280;47212;41.326;2.104;2023-09-19T09:48:30;101710.59;;;27.99;56.64
61337;BME280;47212;41.326;2.104;2023-09-19T09:53:33;101716.22;;;28.15;56.29
61337;BME280;47212;41.326;2.104;2023-09-19T09:58:50;101734.34;;;28.33;55.68
61337;BME280;47212;41.326;2.104;2023-09-19T10:03:58;101742.78;;;28.21;54.99
61337;BME280;47212;41.326;2.104;2023-09-19T10:09:07;101740.81;;;27.94;56.21
61337;BME280;47212;41.326;2.104;2023-09-19T10:14:15;101728.53;;;27.58;57.68
61337;BME280;47212;41.326;2.104;2023-09-19T10:19:25;101736.53;;;27.32;58.85
61337;BME280;47212;41.326;2.104;2023-09-19T10:24:33;101737.25;;;27.04;59.16
61337;BME280;47212;41.326;2.104;2023-09-19T10:29:39;101730.38;;;27.02;59.22
61337;BME280;47212;41.326;2.104;2023-09-19T10:34:47;101700.81;;;27.13;59.46
61337;BME280;47212;41.326;2.104;2023-09-19T10:39:53;101713.78;;;27.45;59.24
61337;BME280;47212;41.326;2.104;2023-09-19T10:44:57;101720.84;;;27.67;58.24
61337;BME280;47212;41.326;2.104;2023-09-19T10:50:02;101716.81;;;27.92;58.00
61337;BME280;47212;41.326;2.104;2023-09-19T10:55:08;101712.97;;;28.13;57.24
61337;BME280;47212;41.326;2.104;2023-09-19T11:00:13;101705.22;;;28.22;55.46
61337;BME280;47212;41.326;2.104;2023-09-19T11:05:25;101705.88;;;28.31;54.79
61337;BME280;47212;41.326;2.104;2023-09-19T11:10:47;101708.00;;;28.22;54.49
61337;BME280;47212;41.326;2.104;2023-09-19T11:26:44;101711.63;;;27.79;56.35
61337;BME280;47212;41.326;2.104;2023-09-19T11:31:49;101710.94;;;27.57;57.23
61337;BME280;47212;41.326;2.104;2023-09-19T11:36:53;101707.78;;;27.59;58.18
61337;BME280;47212;41.326;2.104;2023-09-19T11:41:56;101706.44;;;27.41;58.20
61337;BME280;47212;41.326;2.104;2023-09-19T11:46:59;101703.34;;;27.18;58.53
61337;BME280;47212;41.326;2.104;2023-09-19T11:52:02;101704.16;;;27.18;58.08
61337;BME280;47212;41.326;2.104;2023-09-19T11:57:07;101702.75;;;27.24;57.76
61337;BME280;47212;41.326;2.104;2023-09-19T12:02:12;101709.75;;;27.18;57.94
61337;BME280;47212;41.326;2.104;2023-09-19T12:07:20;101712.78;;;27.13;57.45
61337;BME280;47212;41.326;2.104;2023-09-19T12:12:25;101710.47;;;26.91;57.30
61337;BME280;47212;41.326;2.104;2023-09-19T12:17:37;101701.34;;;26.82;58.04
61337;BME280;47212;41.326;2.104;2023-09-19T12:22:40;101704.63;;;26.72;57.63
61337;BME280;47212;41.326;2.104;2023-09-19T12:27:46;101693.91;;;26.74;57.83
61337;BME280;47212;41.326;2.104;2023-09-19T12:32:57;101689.94;;;26.75;57.92
61337;BME280;47212;41.326;2.104;2023-09-19T12:38:02;101684.13;;;26.80;58.37
61337;BME280;47212;41.326;2.104;2023-09-19T12:43:07;101684.59;;;26.70;58.50
61337;BME280;47212;41.326;2.104;2023-09-19T12:48:21;101676.91;;;26.54;58.98
61337;BME280;47212;41.326;2.104;2023-09-19T12:53:26;101677.38;;;26.44;59.11
61337;BME280;47212;41.326;2.104;2023-09-19T12:58:31;101660.50;;;26.41;59.62
61337;BME280;47212;41.326;2.104;2023-09-19T13:03:34;101674.06;;;26.30;59.53
61337;BME280;47212;41.326;2.104;2023-09-19T13:08:41;101654.75;;;26.25;60.02
61337;BME280;47212;41.326;2.104;2023-09-19T13:13:46;101653.81;;;26.21;60.05
61337;BME280;47212;41.326;2.104;2023-09-19T13:18:53;101638.00;;;26.13;60.75
61337;BME280;47212;41.326;2.104;2023-09-19T13:24:18;101631.25;;;26.14;61.91
61337;BME280;47212;41.326;2.104;2023-09-19T13:29:22;101630.44;;;26.13;61.10
61337;BME280;47212;41.326;2.104;2023-09-19T13:34:25;101637.75;;;26.06;61.37
61337;BME280;47212;41.326;2.104;2023-09-19T13:39:28;101629.09;;;25.98;61.46
61337;BME280;47212;41.326;2.104;2023-09-19T13:44:30;101627.22;;;25.90;62.26
61337;BME280;47212;41.326;2.104;2023-09-19T13:49:33;101625.50;;;25.98;62.31
61337;BME280;47212;41.326;2.104;2023-09-19T13:54:35;101606.31;;;25.96;62.37
61337;BME280;47212;41.326;2.104;2023-09-19T13:59:37;101590.75;;;25.95;62.45
61337;BME280;47212;41.326;2.104;2023-09-19T14:04:40;101588.66;;;25.92;62.43
61337;BME280;47212;41.326;2.104;2023-09-19T14:09:42;101571.88;;;25.80;62.44
61337;BME280;47212;41.326;2.104;2023-09-19T14:14:45;101557.47;;;25.78;62.81
61337;BME280;47212;41.326;2.104;2023-09-19T14:19:49;101546.31;;;25.78;62.72
61337;BME280;47212;41.326;2.104;2023-09-19T14:24:51;101533.97;;;25.67;62.69
61337;BME280;47212;41.326;2.104;2023-09-19T14:29:54;101547.94;;;25.67;62.90
61337;BME280;47212;41.326;2.104;2023-09-19T14:34:57;101556.63;;;25.65;62.79
61337;BME280;47212;41.326;2.104;2023-09-19T14:39:59;101567.44;;;25.67;62.86
61337;BME280;47212;41.326;2.104;2023-09-19T14:45:03;101558.84;;;25.72;62.92
61337;BME280;47212;41.326;2.104;2023-09-19T14:50:05;101551.25;;;25.60;63.25
61337;BME280;47212;41.326;2.104;2023-09-19T14:55:08;101540.19;;;25.52;63.43
61337;BME280;47212;41.326;2.104;2023-09-19T15:00:16;101554.69;;;25.45;63.32
61337;BME280;47212;41.326;2.104;2023-09-19T15:05:22;101549.25;;;25.49;63.53
61337;BME280;47212;41.326;2.104;2023-09-19T15:10:26;101538.66;;;25.42;64.32
61337;BME280;47212;41.326;2.104;2023-09-19T15:15:34;101534.59;;;25.39;64.22
61337;BME280;47212;41.326;2.104;2023-09-19T15:20:43;101537.94;;;25.33;65.33
61337;BME280;47212;41.326;2.104;2023-09-19T15:25:50;101544.53;;;25.28;64.45
61337;BME280;47212;41.326;2.104;2023-09-19T15:31:05;101547.78;;;25.30;64.67
61337;BME280;47212;41.326;2.104;2023-09-19T15:36:12;101559.75;;;25.31;64.83
61337;BME280;47212;41.326;2.104;2023-09-19T15:41:16;101572.53;;;25.32;65.09
61337;BME280;47212;41.326;2.104;2023-09-19T15:46:19;101570.09;;;25.30;64.97
61337;BME280;47212;41.326;2.104;2023-09-19T15:51:21;101557.66;;;25.28;65.20
61337;BME280;47212;41.326;2.104;2023-09-19T15:56:24;101549.16;;;25.24;65.43
61337;BME280;47212;41.326;2.104;2023-09-19T16:01:28;101552.41;;;25.26;65.67
61337;BME280;47212;41.326;2.104;2023-09-19T16:06:31;101570.28;;;25.25;65.17
61337;BME280;47212;41.326;2.104;2023-09-19T16:11:39;101562.75;;;25.26;64.70
61337;BME280;47212;41.326;2.104;2023-09-19T16:16:47;101572.94;;;25.22;65.13
61337;BME280;47212;41.326;2.104;2023-09-19T16:21:50;101563.16;;;25.16;65.70
61337;BME280;47212;41.326;2.104;2023-09-19T16:26:55;101568.75;;;25.16;66.20
61337;BME280;47212;41.326;2.104;2023-09-19T16:32:01;101587.09;;;25.17;65.87
61337;BME280;47212;41.326;2.104;2023-09-19T16:37:09;101591.69;;;25.13;65.81
61337;BME280;47212;41.326;2.104;2023-09-19T16:42:17;101576.31;;;25.06;66.05
61337;BME280;47212;41.326;2.104;2023-09-19T16:47:34;101560.91;;;25.09;66.10
61337;BME280;47212;41.326;2.104;2023-09-19T16:52:38;101562.88;;;25.08;66.26
61337;BME280;47212;41.326;2.104;2023-09-19T16:57:41;101569.81;;;25.02;66.91
61337;BME280;47212;41.326;2.104;2023-09-19T17:02:48;101569.66;;;24.99;67.05
61337;BME280;47212;41.326;2.104;2023-09-19T17:07:54;101582.44;;;25.00;67.16
61337;BME280;47212;41.326;2.104;2023-09-19T17:12:58;101578.50;;;25.01;66.77
61337;BME280;47212;41.326;2.104;2023-09-19T17:18:00;101572.94;;;25.01;66.85
61337;BME280;47212;41.326;2.104;2023-09-19T17:23:06;101577.34;;;25.02;66.75
61337;BME280;47212;41.326;2.104;2023-09-19T17:28:09;101558.38;;;24.95;67.03
61337;BME280;47212;41.326;2.104;2023-09-19T17:33:13;101549.03;;;25.00;66.54
61337;BME280;47212;41.326;2.104;2023-09-19T17:38:17;101541.13;;;25.02;66.61
61337;BME280;47212;41.326;2.104;2023-09-19T17:43:21;101552.16;;;24.98;66.59
61337;BME280;47212;41.326;2.104;2023-09-19T17:48:23;101566.38;;;24.97;66.31
61337;BME280;47212;41.326;2.104;2023-09-19T17:53:27;101554.75;;;24.95;66.37
61337;BME280;47212;41.326;2.104;2023-09-19T17:58:30;101540.03;;;24.94;66.64
61337;BME280;47212;41.326;2.104;2023-09-19T18:03:35;101528.06;;;24.94;66.80
61337;BME280;47212;41.326;2.104;2023-09-19T18:08:40;101525.09;;;24.99;66.41
61337;BME280;47212;41.326;2.104;2023-09-19T18:13:46;101510.19;;;24.95;67.00
61337;BME280;47212;41.326;2.104;2023-09-19T18:18:54;101505.66;;;24.90;67.57
61337;BME280;47212;41.326;2.104;2023-09-19T18:23:59;101496.00;;;24.88;67.07
61337;BME280;47212;41.326;2.104;2023-09-19T18:29:11;101482.44;;;24.86;67.43
61337;BME280;47212;41.326;2.104;2023-09-19T18:34:13;101466.66;;;24.90;67.46
61337;BME280;47212;41.326;2.104;2023-09-19T18:39:17;101493.69;;;24.90;67.40
61337;BME280;47212;41.326;2.104;2023-09-19T18:44:22;101484.88;;;24.88;67.60
61337;BME280;47212;41.326;2.104;2023-09-19T18:49:24;101462.59;;;24.88;67.91
61337;BME280;47212;41.326;2.104;2023-09-19T18:54:27;101482.56;;;24.90;68.18
61337;BME280;47212;41.326;2.104;2023-09-19T18:59:31;101497.66;;;24.89;68.57
61337;BME280;47212;41.326;2.104;2023-09-19T19:04:55;101481.41;;;24.91;68.33
61337;BME280;47212;41.326;2.104;2023-09-19T19:10:02;101464.19;;;24.97;68.34
61337;BME280;47212;41.326;2.104;2023-09-19T19:15:08;101457.56;;;25.02;69.01
61337;BME280;47212;41.326;2.104;2023-09-19T19:20:13;101452.59;;;25.07;68.54
61337;BME280;47212;41.326;2.104;2023-09-19T19:25:24;101444.25;;;25.07;68.60
61337;BME280;47212;41.326;2.104;2023-09-19T19:30:28;101442.75;;;25.10;68.48
61337;BME280;47212;41.326;2.104;2023-09-19T19:35:31;101452.72;;;25.11;68.90
61337;BME280;47212;41.326;2.104;2023-09-19T19:40:36;101455.72;;;25.06;68.75
61337;BME280;47212;41.326;2.104;2023-09-19T19:45:38;101475.22;;;25.06;69.11
61337;BME280;47212;41.326;2.104;2023-09-19T19:50:41;101485.91;;;25.04;68.27
61337;BME280;47212;41.326;2.104;2023-09-19T19:55:43;101502.00;;;24.98;68.35
61337;BME280;47212;41.326;2.104;2023-09-19T20:00:45;101484.53;;;24.89;68.72
61337;BME280;47212;41.326;2.104;2023-09-19T20:05:48;101489.50;;;24.84;68.88
61337;BME280;47212;41.326;2.104;2023-09-19T20:10:52;101471.97;;;24.83;69.07
61337;BME280;47212;41.326;2.104;2023-09-19T20:15:55;101473.75;;;24.88;69.36
61337;BME280;47212;41.326;2.104;2023-09-19T20:21:04;101477.00;;;24.90;69.42
61337;BME280;47212;41.326;2.104;2023-09-19T20:26:12;101476.31;;;24.93;69.95
61337;BME280;47212;41.326;2.104;2023-09-19T20:31:14;101473.06;;;24.91;69.24
61337;BME280;47212;41.326;2.104;2023-09-19T20:36:17;101469.78;;;24.89;69.68
61337;BME280;47212;41.326;2.104;2023-09-19T20:41:19;101487.66;;;24.88;69.66
61337;BME280;47212;41.326;2.104;2023-09-19T20:46:21;101493.91;;;24.85;69.49
61337;BME280;47212;41.326;2.104;2023-09-19T20:51:25;101488.81;;;24.87;69.76
61337;BME280;47212;41.326;2.104;2023-09-19T20:56:29;101487.78;;;24.91;69.76
61337;BME280;47212;41.326;2.104;2023-09-19T21:01:33;101497.44;;;24.94;69.77
61337;BME280;47212;41.326;2.104;2023-09-19T21:06:37;101501.84;;;24.95;69.59
61337;BME280;47212;41.326;2.104;2023-09-19T21:11:43;101498.59;;;24.93;69.92
61337;BME280;47212;41.326;2.104;2023-09-19T21:16:48;101495.34;;;24.91;69.86
61337;BME280;47212;41.326;2.104;2023-09-19T21:21:56;101491.38;;;24.92;70.00
61337;BME280;47212;41.326;2.104;2023-09-19T21:27:01;101479.91;;;24.93;69.90
61337;BME280;47212;41.326;2.104;2023-09-19T21:32:07;101488.56;;;25.00;69.36
61337;BME280;47212;41.326;2.104;2023-09-19T21:37:10;101490.88;;;24.98;69.66
61337;BME280;47212;41.326;2.104;2023-09-19T21:42:16;101485.94;;;24.95;69.57
61337;BME280;47212;41.326;2.104;2023-09-19T21:47:19;101481.88;;;24.93;69.72
61337;BME280;47212;41.326;2.104;2023-09-19T21:52:21;101479.56;;;24.95;69.75
61337;BME280;47212;41.326;2.104;2023-09-19T21:57:24;101484.31;;;24.94;69.53
61337;BME280;47212;41.326;2.104;2023-09-19T22:02:26;101472.38;;;24.94;69.15
61337;BME280;47212;41.326;2.104;2023-09-19T22:07:28;101473.06;;;24.91;69.41
61337;BME280;47212;41.326;2.104;2023-09-19T22:12:31;101448.34;;;24.89;69.27
61337;BME280;47212;41.326;2.104;2023-09-19T22:17:34;101437.53;;;24.88;69.56
61337;BME280;47212;41.326;2.104;2023-09-19T22:22:37;101439.16;;;24.89;69.53
61337;BME280;47212;41.326;2.104;2023-09-19T22:27:40;101431.03;;;24.84;69.50
61337;BME280;47212;41.326;2.104;2023-09-19T22:32:41;101411.41;;;24.80;69.41
61337;BME280;47212;41.326;2.104;2023-09-19T22:37:44;101417.78;;;24.81;69.57
61337;BME280;47212;41.326;2.104;2023-09-19T22:42:46;101412.91;;;24.77;69.67
61337;BME280;47212;41.326;2.104;2023-09-19T22:47:50;101430.28;;;24.74;69.73
61337;BME280;47212;41.326;2.104;2023-09-19T22:52:52;101455.56;;;24.69;70.16
61337;BME280;47212;41.326;2.104;2023-09-19T22:58:02;101450.19;;;24.64;70.60
61337;BME280;47212;41.326;2.104;2023-09-19T23:03:05;101417.25;;;24.66;71.53
61337;BME280;47212;41.326;2.104;2023-09-19T23:08:09;101412.38;;;24.63;72.38
61337;BME280;47212;41.326;2.104;2023-09-19T23:13:15;101407.22;;;24.53;74.40
61337;BME280;47212;41.326;2.104;2023-09-19T23:18:28;101412.75;;;24.41;75.12
61337;BME280;47212;41.326;2.104;2023-09-19T23:23:31;101410.38;;;24.31;75.74
61337;BME280;47212;41.326;2.104;2023-09-19T23:28:33;101411.66;;;24.25;76.51
61337;BME280;47212;41.326;2.104;2023-09-19T23:33:41;101381.25;;;24.20;77.38
61337;BME280;47212;41.326;2.104;2023-09-19T23:38:43;101358.72;;;24.12;77.90
61337;BME280;47212;41.326;2.104;2023-09-19T23:43:49;101337.84;;;24.06;78.74
61337;BME280;47212;41.326;2.104;2023-09-19T23:48:52;101346.38;;;24.01;79.42
61337;BME280;47212;41.326;2.104;2023-09-19T23:53:54;101362.94;;;23.98;80.44
61337;BME280;47212;41.326;2.104;2023-09-19T23:58:56;101381.78;;;23.92;81.22
